Belmont, MA (02478)

04:46 PM EST del 16 Gennaio 2017 (GMT -0500)
Lantern Road Belmont MA | | Change Station

Alt. 207 ft 42.40 °N, 71.18 °W | Updated 8 seconds ago

Molto nuvoloso
Molto nuvoloso
39.9 °F
Sembra 40 °F
N
2.5
Vento Variabile Vento da NO
Gusts 2.5 mph

Oggi
Massima -- | Minima -- °F
--% Possibilità di precip.
Ieri
Massima -- | Minima -- °F
Precip. -- in
Pressione 30.32 in
Visibilità 10.0 miglia
Nuvole Nubi sparse 25000 ft
Raffreddamento del vento 40 °F
Punto di rugiada 13 °F
Umidità 33%
Piovosità 0.00 in
Spessore del manto nevoso Non disponibile.
7:10 AM 4:38 PM
Gobba a levante, 78% visible
METAR KBED 162056Z 26006KT 10SM SCT250 04/M11 A3027 RMK AO2 SLP266 T00441106 56012
Pressione 30.32 in
Visibilità 10.0 miglia
Nuvole Nubi sparse 25000 ft
Raffreddamento del vento 40 °F
Punto di rugiada 13 °F
Umidità 33%
Piovosità 0.00 in
Spessore del manto nevoso Non disponibile.
7:10 AM 4:38 PM
Gobba a levante, 78% visible
METAR KBED 162056Z 26006KT 10SM SCT250 04/M11 A3027 RMK AO2 SLP266 T00441106 56012

Get Your Daily Forecast Email!

Thanks for signing up!

Be on the lookout for a verification email in your inbox.

You'll start receiving the daily forecast at 8 AM.

×

10-Day Weather Forecast

Almanac

Astronomia

Jan. 16, 2017 Alba Tramonto
Ora attuale
Crepuscolo civile
Crepuscolo nautico
Crepuscolo astronomico
Luna
Estensione della luce visibile
Lunghezza del giorno
Tomorrow will be .
, % of the Moon is Illuminated

Gli estremi di oggi

State Highs State Lows

Community

WunderPhotos

Upload Photos

1,962,540 foto caricate!

WunderBlog® & News

Nearby

Qualità dell'aria

  Qualità dell'aria Indice AQ Inquinante
Not available.

Profondità neve

Stazione Profondità Altitudine

Attività sismica

Città  Distanza Mag. Data & Ora
Minimo Magnitudo Mostrato è 2.5.

Temperature delle acque costiere

Località Temperatura

Stations

Stazioni meteo nelle vicinanze

Ubicazione della stazione Temp. Raffreddamento del vento Punto di rugiada Umidità Vento Precip. Alt. Aggiornato Tipo
                   

Watches & Warnings

There are currently no watches in effect.